sensor_id;sensor_type;location;lat;lon;timestamp;P1;durP1;ratioP1;P2;durP2;ratioP2
25083;SDS011;13075;55.682;37.564;2023-02-26T00:00:16;35.55;;;18.92;;
25083;SDS011;13075;55.682;37.564;2023-02-26T00:02:45;32.72;;;16.75;;
25083;SDS011;13075;55.682;37.564;2023-02-26T00:05:13;36.90;;;18.00;;
25083;SDS011;13075;55.682;37.564;2023-02-26T00:07:40;42.97;;;19.33;;
25083;SDS011;13075;55.682;37.564;2023-02-26T00:10:07;36.50;;;18.75;;
25083;SDS011;13075;55.682;37.564;2023-02-26T00:12:34;41.03;;;20.13;;
25083;SDS011;13075;55.682;37.564;2023-02-26T00:15:00;39.65;;;19.88;;
25083;SDS011;13075;55.682;37.564;2023-02-26T00:17:38;38.53;;;20.50;;
25083;SDS011;13075;55.682;37.564;2023-02-26T00:20:10;36.33;;;17.42;;
25083;SDS011;13075;55.682;37.564;2023-02-26T00:22:37;39.45;;;21.27;;
25083;SDS011;13075;55.682;37.564;2023-02-26T00:25:03;43.58;;;20.95;;
25083;SDS011;13075;55.682;37.564;2023-02-26T00:27:29;39.33;;;19.42;;
25083;SDS011;13075;55.682;37.564;2023-02-26T00:29:55;37.15;;;18.52;;
25083;SDS011;13075;55.682;37.564;2023-02-26T00:32:21;24.92;;;16.38;;
25083;SDS011;13075;55.682;37.564;2023-02-26T00:34:47;28.02;;;15.23;;
25083;SDS011;13075;55.682;37.564;2023-02-26T00:42:16;23.75;;;12.82;;
25083;SDS011;13075;55.682;37.564;2023-02-26T00:44:42;22.45;;;12.77;;
25083;SDS011;13075;55.682;37.564;2023-02-26T00:47:12;25.70;;;12.00;;
25083;SDS011;13075;55.682;37.564;2023-02-26T00:52:29;18.92;;;11.02;;
25083;SDS011;13075;55.682;37.564;2023-02-26T00:55:03;18.83;;;12.15;;
25083;SDS011;13075;55.682;37.564;2023-02-26T00:57:29;22.85;;;11.65;;
25083;SDS011;13075;55.682;37.564;2023-02-26T00:59:55;16.48;;;9.85;;
25083;SDS011;13075;55.682;37.564;2023-02-26T01:02:20;16.70;;;11.18;;
25083;SDS011;13075;55.682;37.564;2023-02-26T01:04:46;21.27;;;10.77;;
25083;SDS011;13075;55.682;37.564;2023-02-26T01:07:12;14.80;;;8.63;;
25083;SDS011;13075;55.682;37.564;2023-02-26T01:09:39;17.33;;;8.60;;
25083;SDS011;13075;55.682;37.564;2023-02-26T01:12:06;15.32;;;8.07;;
25083;SDS011;13075;55.682;37.564;2023-02-26T01:14:34;16.08;;;8.80;;
25083;SDS011;13075;55.682;37.564;2023-02-26T01:17:11;14.98;;;9.07;;
25083;SDS011;13075;55.682;37.564;2023-02-26T01:24:41;13.20;;;8.63;;
25083;SDS011;13075;55.682;37.564;2023-02-26T01:27:07;13.40;;;9.40;;
25083;SDS011;13075;55.682;37.564;2023-02-26T01:29:33;13.57;;;8.05;;
25083;SDS011;13075;55.682;37.564;2023-02-26T01:32:02;13.15;;;8.85;;
25083;SDS011;13075;55.682;37.564;2023-02-26T01:39:43;8.95;;;6.22;;
25083;SDS011;13075;55.682;37.564;2023-02-26T01:42:46;14.25;;;7.57;;
25083;SDS011;13075;55.682;37.564;2023-02-26T01:45:12;10.07;;;7.07;;
25083;SDS011;13075;55.682;37.564;2023-02-26T01:47:59;12.23;;;7.80;;
25083;SDS011;13075;55.682;37.564;2023-02-26T01:55:48;15.23;;;8.80;;
25083;SDS011;13075;55.682;37.564;2023-02-26T01:58:17;11.43;;;7.95;;
25083;SDS011;13075;55.682;37.564;2023-02-26T02:00:45;14.57;;;9.50;;
25083;SDS011;13075;55.682;37.564;2023-02-26T02:03:10;20.27;;;10.20;;
25083;SDS011;13075;55.682;37.564;2023-02-26T02:05:41;15.38;;;10.48;;
25083;SDS011;13075;55.682;37.564;2023-02-26T02:08:11;15.48;;;10.10;;
25083;SDS011;13075;55.682;37.564;2023-02-26T02:10:40;17.50;;;10.50;;
25083;SDS011;13075;55.682;37.564;2023-02-26T02:16:01;19.05;;;10.88;;
25083;SDS011;13075;55.682;37.564;2023-02-26T02:21:40;16.67;;;12.02;;
25083;SDS011;13075;55.682;37.564;2023-02-26T02:26:47;19.58;;;12.35;;
25083;SDS011;13075;55.682;37.564;2023-02-26T02:29:40;17.58;;;10.77;;
25083;SDS011;13075;55.682;37.564;2023-02-26T02:32:17;14.70;;;9.02;;
25083;SDS011;13075;55.682;37.564;2023-02-26T02:34:57;13.93;;;8.68;;
25083;SDS011;13075;55.682;37.564;2023-02-26T02:37:37;15.68;;;9.57;;
25083;SDS011;13075;55.682;37.564;2023-02-26T02:40:13;14.50;;;7.90;;
25083;SDS011;13075;55.682;37.564;2023-02-26T02:42:44;9.60;;;7.00;;
25083;SDS011;13075;55.682;37.564;2023-02-26T02:45:31;8.88;;;5.95;;
25083;SDS011;13075;55.682;37.564;2023-02-26T02:48:04;9.35;;;5.80;;
25083;SDS011;13075;55.682;37.564;2023-02-26T02:51:20;10.10;;;5.78;;
25083;SDS011;13075;55.682;37.564;2023-02-26T02:53:28;8.57;;;4.65;;
25083;SDS011;13075;55.682;37.564;2023-02-26T02:56:00;11.70;;;5.90;;
25083;SDS011;13075;55.682;37.564;2023-02-26T02:58:33;8.40;;;5.60;;
25083;SDS011;13075;55.682;37.564;2023-02-26T03:01:08;7.95;;;5.05;;
25083;SDS011;13075;55.682;37.564;2023-02-26T03:03:41;6.47;;;4.70;;
25083;SDS011;13075;55.682;37.564;2023-02-26T03:06:30;6.32;;;4.65;;
25083;SDS011;13075;55.682;37.564;2023-02-26T03:08:56;6.35;;;4.60;;
25083;SDS011;13075;55.682;37.564;2023-02-26T03:11:24;7.50;;;5.15;;
25083;SDS011;13075;55.682;37.564;2023-02-26T03:13:49;7.90;;;4.90;;
25083;SDS011;13075;55.682;37.564;2023-02-26T03:19:35;7.28;;;5.03;;
25083;SDS011;13075;55.682;37.564;2023-02-26T03:22:12;8.13;;;5.80;;
25083;SDS011;13075;55.682;37.564;2023-02-26T03:24:52;8.18;;;5.85;;
25083;SDS011;13075;55.682;37.564;2023-02-26T03:27:25;9.77;;;6.65;;
25083;SDS011;13075;55.682;37.564;2023-02-26T03:30:25;8.85;;;5.57;;
25083;SDS011;13075;55.682;37.564;2023-02-26T03:33:05;10.40;;;6.45;;
25083;SDS011;13075;55.682;37.564;2023-02-26T03:38:05;8.93;;;6.47;;
25083;SDS011;13075;55.682;37.564;2023-02-26T03:40:57;10.50;;;7.10;;
25083;SDS011;13075;55.682;37.564;2023-02-26T03:46:03;12.43;;;6.28;;
25083;SDS011;13075;55.682;37.564;2023-02-26T03:48:32;10.43;;;6.85;;
25083;SDS011;13075;55.682;37.564;2023-02-26T03:51:03;9.20;;;6.15;;
25083;SDS011;13075;55.682;37.564;2023-02-26T03:54:04;8.38;;;6.68;;
25083;SDS011;13075;55.682;37.564;2023-02-26T03:56:43;10.23;;;6.55;;
25083;SDS011;13075;55.682;37.564;2023-02-26T03:59:29;9.45;;;6.40;;
25083;SDS011;13075;55.682;37.564;2023-02-26T04:02:47;9.18;;;5.70;;
25083;SDS011;13075;55.682;37.564;2023-02-26T04:05:23;7.97;;;5.53;;
25083;SDS011;13075;55.682;37.564;2023-02-26T04:07:52;7.85;;;5.43;;
25083;SDS011;13075;55.682;37.564;2023-02-26T04:10:19;8.73;;;6.05;;
25083;SDS011;13075;55.682;37.564;2023-02-26T04:12:57;9.57;;;6.57;;
25083;SDS011;13075;55.682;37.564;2023-02-26T04:15:24;7.93;;;5.78;;
25083;SDS011;13075;55.682;37.564;2023-02-26T04:17:49;9.98;;;6.65;;
25083;SDS011;13075;55.682;37.564;2023-02-26T04:20:15;8.95;;;5.97;;
25083;SDS011;13075;55.682;37.564;2023-02-26T04:22:40;10.52;;;5.85;;
25083;SDS011;13075;55.682;37.564;2023-02-26T04:25:06;9.07;;;6.18;;
25083;SDS011;13075;55.682;37.564;2023-02-26T04:27:32;7.97;;;5.15;;
25083;SDS011;13075;55.682;37.564;2023-02-26T04:29:58;7.78;;;4.72;;
25083;SDS011;13075;55.682;37.564;2023-02-26T04:32:23;6.15;;;4.95;;
25083;SDS011;13075;55.682;37.564;2023-02-26T04:34:49;7.25;;;4.97;;
25083;SDS011;13075;55.682;37.564;2023-02-26T04:37:16;8.25;;;4.95;;
25083;SDS011;13075;55.682;37.564;2023-02-26T04:39:42;7.82;;;5.25;;
25083;SDS011;13075;55.682;37.564;2023-02-26T04:42:09;6.63;;;4.38;;
25083;SDS011;13075;55.682;37.564;2023-02-26T04:44:35;5.78;;;4.68;;
25083;SDS011;13075;55.682;37.564;2023-02-26T04:47:01;4.78;;;4.00;;
25083;SDS011;13075;55.682;37.564;2023-02-26T04:49:27;5.20;;;3.70;;
25083;SDS011;13075;55.682;37.564;2023-02-26T04:51:54;8.15;;;4.15;;
25083;SDS011;13075;55.682;37.564;2023-02-26T04:54:21;5.10;;;2.88;;
25083;SDS011;13075;55.682;37.564;2023-02-26T04:56:46;6.22;;;3.67;;
25083;SDS011;13075;55.682;37.564;2023-02-26T04:59:12;5.03;;;3.65;;
25083;SDS011;13075;55.682;37.564;2023-02-26T05:01:38;3.08;;;2.75;;
25083;SDS011;13075;55.682;37.564;2023-02-26T05:04:06;4.70;;;3.45;;
25083;SDS011;13075;55.682;37.564;2023-02-26T05:06:32;5.50;;;2.65;;
25083;SDS011;13075;55.682;37.564;2023-02-26T05:08:57;4.78;;;2.85;;
25083;SDS011;13075;55.682;37.564;2023-02-26T05:11:24;3.75;;;3.03;;
25083;SDS011;13075;55.682;37.564;2023-02-26T05:13:49;4.68;;;2.92;;
25083;SDS011;13075;55.682;37.564;2023-02-26T05:16:15;11.70;;;5.88;;
25083;SDS011;13075;55.682;37.564;2023-02-26T05:18:41;5.78;;;2.72;;
25083;SDS011;13075;55.682;37.564;2023-02-26T05:21:07;2.30;;;1.92;;
25083;SDS011;13075;55.682;37.564;2023-02-26T05:23:32;3.55;;;2.03;;
25083;SDS011;13075;55.682;37.564;2023-02-26T05:25:59;5.95;;;1.80;;
25083;SDS011;13075;55.682;37.564;2023-02-26T05:28:25;3.95;;;2.22;;
25083;SDS011;13075;55.682;37.564;2023-02-26T05:30:51;2.47;;;1.83;;
25083;SDS011;13075;55.682;37.564;2023-02-26T05:33:18;3.63;;;1.80;;
25083;SDS011;13075;55.682;37.564;2023-02-26T05:35:44;3.78;;;1.75;;
25083;SDS011;13075;55.682;37.564;2023-02-26T05:38:10;2.42;;;1.90;;
25083;SDS011;13075;55.682;37.564;2023-02-26T05:40:36;2.28;;;1.65;;
25083;SDS011;13075;55.682;37.564;2023-02-26T05:43:02;2.08;;;1.80;;
25083;SDS011;13075;55.682;37.564;2023-02-26T05:45:27;3.03;;;1.85;;
25083;SDS011;13075;55.682;37.564;2023-02-26T05:47:53;1.63;;;1.52;;
25083;SDS011;13075;55.682;37.564;2023-02-26T05:50:19;2.28;;;1.50;;
25083;SDS011;13075;55.682;37.564;2023-02-26T05:52:44;3.60;;;1.95;;
25083;SDS011;13075;55.682;37.564;2023-02-26T05:55:10;1.48;;;1.38;;
25083;SDS011;13075;55.682;37.564;2023-02-26T05:57:35;2.00;;;1.42;;
25083;SDS011;13075;55.682;37.564;2023-02-26T06:00:02;1.50;;;1.40;;
25083;SDS011;13075;55.682;37.564;2023-02-26T06:02:37;1.55;;;1.45;;
25083;SDS011;13075;55.682;37.564;2023-02-26T06:05:03;4.18;;;1.52;;
25083;SDS011;13075;55.682;37.564;2023-02-26T06:07:29;1.40;;;1.30;;
25083;SDS011;13075;55.682;37.564;2023-02-26T06:09:55;2.00;;;1.67;;
25083;SDS011;13075;55.682;37.564;2023-02-26T06:12:20;2.08;;;1.40;;
25083;SDS011;13075;55.682;37.564;2023-02-26T06:14:46;2.22;;;1.90;;
25083;SDS011;13075;55.682;37.564;2023-02-26T06:17:12;2.70;;;1.63;;
25083;SDS011;13075;55.682;37.564;2023-02-26T06:19:37;2.28;;;1.85;;
25083;SDS011;13075;55.682;37.564;2023-02-26T06:22:03;2.13;;;1.80;;
25083;SDS011;13075;55.682;37.564;2023-02-26T06:24:29;1.67;;;1.58;;
25083;SDS011;13075;55.682;37.564;2023-02-26T06:26:54;2.80;;;1.98;;
25083;SDS011;13075;55.682;37.564;2023-02-26T06:29:20;2.25;;;1.73;;
25083;SDS011;13075;55.682;37.564;2023-02-26T06:31:46;4.28;;;2.65;;
25083;SDS011;13075;55.682;37.564;2023-02-26T06:34:12;5.22;;;2.17;;
25083;SDS011;13075;55.682;37.564;2023-02-26T06:36:37;4.30;;;2.30;;
25083;SDS011;13075;55.682;37.564;2023-02-26T06:39:03;1.95;;;1.70;;
25083;SDS011;13075;55.682;37.564;2023-02-26T06:41:29;3.08;;;2.03;;
25083;SDS011;13075;55.682;37.564;2023-02-26T06:43:55;2.30;;;1.80;;
25083;SDS011;13075;55.682;37.564;2023-02-26T06:46:20;3.38;;;2.10;;
25083;SDS011;13075;55.682;37.564;2023-02-26T06:48:46;2.22;;;2.03;;
25083;SDS011;13075;55.682;37.564;2023-02-26T06:51:12;4.45;;;1.90;;
25083;SDS011;13075;55.682;37.564;2023-02-26T06:53:37;2.72;;;1.70;;
25083;SDS011;13075;55.682;37.564;2023-02-26T06:56:03;3.63;;;2.05;;
25083;SDS011;13075;55.682;37.564;2023-02-26T06:58:29;3.83;;;2.25;;
25083;SDS011;13075;55.682;37.564;2023-02-26T07:00:54;3.70;;;1.98;;
25083;SDS011;13075;55.682;37.564;2023-02-26T07:03:20;4.88;;;2.30;;
25083;SDS011;13075;55.682;37.564;2023-02-26T07:05:45;2.95;;;1.90;;
25083;SDS011;13075;55.682;37.564;2023-02-26T07:08:12;4.30;;;2.30;;
25083;SDS011;13075;55.682;37.564;2023-02-26T07:10:38;5.28;;;2.10;;
25083;SDS011;13075;55.682;37.564;2023-02-26T07:13:05;2.97;;;2.30;;
25083;SDS011;13075;55.682;37.564;2023-02-26T07:15:31;3.58;;;2.78;;
25083;SDS011;13075;55.682;37.564;2023-02-26T07:17:57;6.05;;;3.25;;
25083;SDS011;13075;55.682;37.564;2023-02-26T07:20:24;3.42;;;2.58;;
25083;SDS011;13075;55.682;37.564;2023-02-26T07:22:50;2.85;;;2.55;;
25083;SDS011;13075;55.682;37.564;2023-02-26T07:25:16;3.60;;;2.67;;
25083;SDS011;13075;55.682;37.564;2023-02-26T07:27:42;3.83;;;2.58;;
25083;SDS011;13075;55.682;37.564;2023-02-26T07:30:07;4.82;;;2.72;;
25083;SDS011;13075;55.682;37.564;2023-02-26T07:32:34;2.30;;;2.10;;
25083;SDS011;13075;55.682;37.564;2023-02-26T07:35:00;2.83;;;2.35;;
25083;SDS011;13075;55.682;37.564;2023-02-26T07:37:26;3.50;;;2.50;;
25083;SDS011;13075;55.682;37.564;2023-02-26T07:39:53;3.10;;;2.38;;
25083;SDS011;13075;55.682;37.564;2023-02-26T07:42:19;2.97;;;2.53;;
25083;SDS011;13075;55.682;37.564;2023-02-26T07:44:45;4.82;;;2.47;;
25083;SDS011;13075;55.682;37.564;2023-02-26T07:47:11;4.50;;;2.70;;
25083;SDS011;13075;55.682;37.564;2023-02-26T07:49:37;6.68;;;2.40;;
25083;SDS011;13075;55.682;37.564;2023-02-26T07:52:03;2.60;;;2.35;;
25083;SDS011;13075;55.682;37.564;2023-02-26T07:54:31;4.80;;;2.80;;
25083;SDS011;13075;55.682;37.564;2023-02-26T07:56:57;3.03;;;2.22;;
25083;SDS011;13075;55.682;37.564;2023-02-26T07:59:22;3.22;;;2.20;;
25083;SDS011;13075;55.682;37.564;2023-02-26T08:01:48;5.05;;;2.38;;
25083;SDS011;13075;55.682;37.564;2023-02-26T08:04:13;5.30;;;2.15;;
25083;SDS011;13075;55.682;37.564;2023-02-26T08:06:39;1.98;;;1.67;;
25083;SDS011;13075;55.682;37.564;2023-02-26T08:09:05;2.28;;;2.03;;
25083;SDS011;13075;55.682;37.564;2023-02-26T08:11:30;2.92;;;1.88;;
25083;SDS011;13075;55.682;37.564;2023-02-26T08:14:04;7.10;;;2.63;;
25083;SDS011;13075;55.682;37.564;2023-02-26T08:16:30;3.28;;;2.28;;
25083;SDS011;13075;55.682;37.564;2023-02-26T08:18:56;6.03;;;2.22;;
25083;SDS011;13075;55.682;37.564;2023-02-26T08:21:22;3.40;;;1.63;;
25083;SDS011;13075;55.682;37.564;2023-02-26T08:23:47;11.02;;;4.20;;
25083;SDS011;13075;55.682;37.564;2023-02-26T08:26:13;3.40;;;1.60;;
25083;SDS011;13075;55.682;37.564;2023-02-26T08:28:39;3.35;;;2.00;;
25083;SDS011;13075;55.682;37.564;2023-02-26T08:31:05;2.28;;;1.45;;
25083;SDS011;13075;55.682;37.564;2023-02-26T08:33:31;1.73;;;1.42;;
25083;SDS011;13075;55.682;37.564;2023-02-26T08:35:58;1.60;;;1.50;;
25083;SDS011;13075;55.682;37.564;2023-02-26T08:38:26;1.48;;;1.38;;
25083;SDS011;13075;55.682;37.564;2023-02-26T08:40:53;1.70;;;1.40;;
25083;SDS011;13075;55.682;37.564;2023-02-26T08:43:19;1.20;;;1.10;;
25083;SDS011;13075;55.682;37.564;2023-02-26T08:45:45;1.67;;;1.10;;
25083;SDS011;13075;55.682;37.564;2023-02-26T08:48:11;2.65;;;1.58;;
25083;SDS011;13075;55.682;37.564;2023-02-26T08:50:37;1.73;;;1.25;;
25083;SDS011;13075;55.682;37.564;2023-02-26T08:53:04;1.60;;;1.48;;
25083;SDS011;13075;55.682;37.564;2023-02-26T08:55:30;4.57;;;1.48;;
25083;SDS011;13075;55.682;37.564;2023-02-26T08:57:56;2.13;;;1.58;;
25083;SDS011;13075;55.682;37.564;2023-02-26T09:00:22;1.10;;;1.00;;
25083;SDS011;13075;55.682;37.564;2023-02-26T09:02:47;2.35;;;1.40;;
25083;SDS011;13075;55.682;37.564;2023-02-26T09:05:13;1.95;;;1.40;;
25083;SDS011;13075;55.682;37.564;2023-02-26T09:07:40;2.28;;;1.50;;
25083;SDS011;13075;55.682;37.564;2023-02-26T09:10:06;1.90;;;1.40;;
25083;SDS011;13075;55.682;37.564;2023-02-26T09:12:32;1.88;;;1.48;;
25083;SDS011;13075;55.682;37.564;2023-02-26T09:15:01;1.80;;;1.55;;
25083;SDS011;13075;55.682;37.564;2023-02-26T09:17:28;3.67;;;1.60;;
25083;SDS011;13075;55.682;37.564;2023-02-26T09:19:54;2.10;;;1.50;;
25083;SDS011;13075;55.682;37.564;2023-02-26T09:22:20;4.97;;;1.33;;
25083;SDS011;13075;55.682;37.564;2023-02-26T09:24:46;3.75;;;2.22;;
25083;SDS011;13075;55.682;37.564;2023-02-26T09:27:11;1.63;;;1.27;;
25083;SDS011;13075;55.682;37.564;2023-02-26T09:29:37;4.78;;;1.35;;
25083;SDS011;13075;55.682;37.564;2023-02-26T09:32:03;1.48;;;1.23;;
25083;SDS011;13075;55.682;37.564;2023-02-26T09:34:33;1.80;;;1.20;;
25083;SDS011;13075;55.682;37.564;2023-02-26T09:36:59;3.58;;;1.20;;
25083;SDS011;13075;55.682;37.564;2023-02-26T09:39:25;1.67;;;1.50;;
25083;SDS011;13075;55.682;37.564;2023-02-26T09:41:52;4.05;;;1.52;;
25083;SDS011;13075;55.682;37.564;2023-02-26T09:52:15;2.22;;;1.67;;
25083;SDS011;13075;55.682;37.564;2023-02-26T09:54:55;2.38;;;1.75;;
25083;SDS011;13075;55.682;37.564;2023-02-26T09:57:35;3.72;;;1.98;;
25083;SDS011;13075;55.682;37.564;2023-02-26T10:00:13;1.80;;;1.60;;
25083;SDS011;13075;55.682;37.564;2023-02-26T10:02:49;1.50;;;1.40;;
25083;SDS011;13075;55.682;37.564;2023-02-26T10:05:28;2.20;;;1.38;;
25083;SDS011;13075;55.682;37.564;2023-02-26T10:07:57;2.90;;;1.73;;
25083;SDS011;13075;55.682;37.564;2023-02-26T10:13:15;1.85;;;1.63;;
25083;SDS011;13075;55.682;37.564;2023-02-26T10:16:08;2.20;;;1.70;;
25083;SDS011;13075;55.682;37.564;2023-02-26T10:18:58;3.00;;;2.33;;
25083;SDS011;13075;55.682;37.564;2023-02-26T10:21:34;3.33;;;1.50;;
25083;SDS011;13075;55.682;37.564;2023-02-26T10:24:14;2.05;;;1.85;;
25083;SDS011;13075;55.682;37.564;2023-02-26T10:26:53;1.88;;;1.63;;
25083;SDS011;13075;55.682;37.564;2023-02-26T10:32:05;2.78;;;2.15;;
25083;SDS011;13075;55.682;37.564;2023-02-26T10:34:54;2.88;;;1.73;;
25083;SDS011;13075;55.682;37.564;2023-02-26T10:43:32;1.92;;;1.83;;
25083;SDS011;13075;55.682;37.564;2023-02-26T10:51:47;6.28;;;2.20;;
25083;SDS011;13075;55.682;37.564;2023-02-26T10:56:53;3.30;;;2.45;;
25083;SDS011;13075;55.682;37.564;2023-02-26T10:59:19;2.97;;;1.92;;
25083;SDS011;13075;55.682;37.564;2023-02-26T11:01:45;2.40;;;1.88;;
25083;SDS011;13075;55.682;37.564;2023-02-26T11:04:16;2.58;;;1.63;;
25083;SDS011;13075;55.682;37.564;2023-02-26T11:06:51;2.40;;;2.03;;
25083;SDS011;13075;55.682;37.564;2023-02-26T11:09:34;1.90;;;1.80;;
25083;SDS011;13075;55.682;37.564;2023-02-26T11:12:11;4.25;;;2.00;;
25083;SDS011;13075;55.682;37.564;2023-02-26T11:14:38;5.72;;;1.95;;
25083;SDS011;13075;55.682;37.564;2023-02-26T11:17:09;2.75;;;1.90;;
25083;SDS011;13075;55.682;37.564;2023-02-26T11:19:39;6.68;;;2.17;;
25083;SDS011;13075;55.682;37.564;2023-02-26T11:22:13;2.58;;;2.05;;
25083;SDS011;13075;55.682;37.564;2023-02-26T11:24:40;4.55;;;2.38;;
25083;SDS011;13075;55.682;37.564;2023-02-26T11:27:12;4.25;;;2.55;;
25083;SDS011;13075;55.682;37.564;2023-02-26T11:29:41;7.75;;;4.85;;
25083;SDS011;13075;55.682;37.564;2023-02-26T11:32:14;3.53;;;2.33;;
25083;SDS011;13075;55.682;37.564;2023-02-26T11:34:46;3.80;;;2.55;;
25083;SDS011;13075;55.682;37.564;2023-02-26T11:37:16;6.97;;;2.60;;
25083;SDS011;13075;55.682;37.564;2023-02-26T11:39:45;6.47;;;2.53;;
25083;SDS011;13075;55.682;37.564;2023-02-26T11:42:11;4.38;;;2.53;;
25083;SDS011;13075;55.682;37.564;2023-02-26T11:44:39;2.20;;;1.98;;
25083;SDS011;13075;55.682;37.564;2023-02-26T11:47:14;3.45;;;2.30;;
25083;SDS011;13075;55.682;37.564;2023-02-26T11:49:44;4.30;;;2.30;;
25083;SDS011;13075;55.682;37.564;2023-02-26T11:52:16;2.78;;;2.35;;
25083;SDS011;13075;55.682;37.564;2023-02-26T11:54:45;2.70;;;2.03;;
25083;SDS011;13075;55.682;37.564;2023-02-26T11:57:19;2.92;;;2.05;;
25083;SDS011;13075;55.682;37.564;2023-02-26T11:59:49;4.63;;;2.22;;
25083;SDS011;13075;55.682;37.564;2023-02-26T12:02:20;3.80;;;2.08;;
25083;SDS011;13075;55.682;37.564;2023-02-26T12:04:50;3.28;;;2.30;;
25083;SDS011;13075;55.682;37.564;2023-02-26T12:07:18;4.07;;;2.25;;
25083;SDS011;13075;55.682;37.564;2023-02-26T12:09:44;3.25;;;2.30;;
25083;SDS011;13075;55.682;37.564;2023-02-26T12:17:47;3.35;;;1.92;;
25083;SDS011;13075;55.682;37.564;2023-02-26T12:20:32;2.80;;;2.22;;
25083;SDS011;13075;55.682;37.564;2023-02-26T12:35:14;4.22;;;2.67;;
25083;SDS011;13075;55.682;37.564;2023-02-26T12:40:40;2.92;;;2.58;;
25083;SDS011;13075;55.682;37.564;2023-02-26T12:46:06;4.15;;;2.40;;
25083;SDS011;13075;55.682;37.564;2023-02-26T12:51:30;4.72;;;2.65;;
25083;SDS011;13075;55.682;37.564;2023-02-26T12:55:13;5.45;;;3.20;;
25083;SDS011;13075;55.682;37.564;2023-02-26T12:57:29;3.67;;;2.75;;
25083;SDS011;13075;55.682;37.564;2023-02-26T13:08:35;6.18;;;3.50;;
25083;SDS011;13075;55.682;37.564;2023-02-26T13:21:47;5.32;;;3.78;;
25083;SDS011;13075;55.682;37.564;2023-02-26T13:24:39;4.15;;;3.50;;
25083;SDS011;13075;55.682;37.564;2023-02-26T13:27:09;8.07;;;4.38;;
25083;SDS011;13075;55.682;37.564;2023-02-26T13:29:50;5.88;;;3.95;;
25083;SDS011;13075;55.682;37.564;2023-02-26T13:32:28;5.40;;;4.15;;
25083;SDS011;13075;55.682;37.564;2023-02-26T13:34:57;7.30;;;4.70;;
25083;SDS011;13075;55.682;37.564;2023-02-26T13:45:59;6.22;;;4.65;;
25083;SDS011;13075;55.682;37.564;2023-02-26T13:51:28;9.05;;;5.05;;
25083;SDS011;13075;55.682;37.564;2023-02-26T13:53:59;9.40;;;5.35;;
25083;SDS011;13075;55.682;37.564;2023-02-26T13:59:04;7.70;;;5.25;;
25083;SDS011;13075;55.682;37.564;2023-02-26T14:06:43;8.02;;;5.90;;
25083;SDS011;13075;55.682;37.564;2023-02-26T14:24:56;9.52;;;6.70;;
25083;SDS011;13075;55.682;37.564;2023-02-26T14:27:32;11.68;;;6.85;;
25083;SDS011;13075;55.682;37.564;2023-02-26T14:35:42;10.43;;;6.22;;
25083;SDS011;13075;55.682;37.564;2023-02-26T14:40:46;11.05;;;7.55;;
25083;SDS011;13075;55.682;37.564;2023-02-26T14:43:21;10.40;;;6.88;;
25083;SDS011;13075;55.682;37.564;2023-02-26T14:46:03;10.60;;;7.47;;
25083;SDS011;13075;55.682;37.564;2023-02-26T14:48:31;12.00;;;7.43;;
25083;SDS011;13075;55.682;37.564;2023-02-26T14:59:00;12.77;;;7.75;;
25083;SDS011;13075;55.682;37.564;2023-02-26T15:06:45;15.50;;;7.55;;
25083;SDS011;13075;55.682;37.564;2023-02-26T15:25:58;13.95;;;9.50;;
25083;SDS011;13075;55.682;37.564;2023-02-26T15:28:31;16.52;;;9.45;;
25083;SDS011;13075;55.682;37.564;2023-02-26T15:31:01;10.75;;;7.80;;
25083;SDS011;13075;55.682;37.564;2023-02-26T15:33:28;12.43;;;7.35;;
25083;SDS011;13075;55.682;37.564;2023-02-26T15:35:55;14.13;;;8.95;;
25083;SDS011;13075;55.682;37.564;2023-02-26T15:38:22;11.50;;;8.07;;
25083;SDS011;13075;55.682;37.564;2023-02-26T15:40:48;12.52;;;8.15;;
25083;SDS011;13075;55.682;37.564;2023-02-26T15:43:19;13.10;;;7.65;;
25083;SDS011;13075;55.682;37.564;2023-02-26T15:45:48;19.60;;;10.02;;
25083;SDS011;13075;55.682;37.564;2023-02-26T15:48:19;18.98;;;9.45;;
25083;SDS011;13075;55.682;37.564;2023-02-26T15:50:53;15.95;;;9.60;;
25083;SDS011;13075;55.682;37.564;2023-02-26T15:55:53;17.65;;;9.13;;
25083;SDS011;13075;55.682;37.564;2023-02-26T15:58:28;17.45;;;9.63;;
25083;SDS011;13075;55.682;37.564;2023-02-26T16:00:59;12.20;;;7.78;;
25083;SDS011;13075;55.682;37.564;2023-02-26T16:03:27;13.95;;;8.45;;
25083;SDS011;13075;55.682;37.564;2023-02-26T16:05:56;12.85;;;8.35;;
25083;SDS011;13075;55.682;37.564;2023-02-26T16:08:23;11.70;;;8.18;;
25083;SDS011;13075;55.682;37.564;2023-02-26T16:10:49;14.35;;;8.63;;
25083;SDS011;13075;55.682;37.564;2023-02-26T16:13:20;11.50;;;8.38;;
25083;SDS011;13075;55.682;37.564;2023-02-26T16:15:57;11.82;;;8.10;;
25083;SDS011;13075;55.682;37.564;2023-02-26T16:18:25;14.35;;;8.40;;
25083;SDS011;13075;55.682;37.564;2023-02-26T16:20:52;15.23;;;9.50;;
25083;SDS011;13075;55.682;37.564;2023-02-26T16:23:28;17.85;;;10.30;;
25083;SDS011;13075;55.682;37.564;2023-02-26T16:26:04;17.23;;;9.13;;
25083;SDS011;13075;55.682;37.564;2023-02-26T16:28:32;15.35;;;8.75;;
25083;SDS011;13075;55.682;37.564;2023-02-26T16:31:20;14.23;;;9.15;;
25083;SDS011;13075;55.682;37.564;2023-02-26T16:33:50;15.05;;;9.45;;
25083;SDS011;13075;55.682;37.564;2023-02-26T16:36:23;17.70;;;9.38;;
25083;SDS011;13075;55.682;37.564;2023-02-26T16:41:34;16.40;;;9.43;;
25083;SDS011;13075;55.682;37.564;2023-02-26T16:44:03;12.50;;;8.07;;
25083;SDS011;13075;55.682;37.564;2023-02-26T16:46:49;15.35;;;8.30;;
25083;SDS011;13075;55.682;37.564;2023-02-26T16:49:28;16.73;;;8.80;;
25083;SDS011;13075;55.682;37.564;2023-02-26T16:51:56;15.52;;;8.95;;
25083;SDS011;13075;55.682;37.564;2023-02-26T16:54:24;11.75;;;7.35;;
25083;SDS011;13075;55.682;37.564;2023-02-26T16:56:57;11.75;;;7.28;;
25083;SDS011;13075;55.682;37.564;2023-02-26T16:59:27;13.70;;;7.35;;
25083;SDS011;13075;55.682;37.564;2023-02-26T17:02:00;14.38;;;7.80;;
25083;SDS011;13075;55.682;37.564;2023-02-26T17:04:31;12.93;;;8.18;;
25083;SDS011;13075;55.682;37.564;2023-02-26T17:06:59;12.30;;;7.90;;
25083;SDS011;13075;55.682;37.564;2023-02-26T17:09:32;12.25;;;7.72;;
25083;SDS011;13075;55.682;37.564;2023-02-26T17:14:54;15.52;;;9.00;;
25083;SDS011;13075;55.682;37.564;2023-02-26T17:17:22;13.05;;;7.50;;
25083;SDS011;13075;55.682;37.564;2023-02-26T17:19:49;14.57;;;8.15;;
25083;SDS011;13075;55.682;37.564;2023-02-26T17:22:16;13.48;;;8.30;;
25083;SDS011;13075;55.682;37.564;2023-02-26T17:24:43;14.50;;;7.35;;
25083;SDS011;13075;55.682;37.564;2023-02-26T17:27:31;12.18;;;6.72;;
25083;SDS011;13075;55.682;37.564;2023-02-26T17:29:59;13.90;;;8.00;;
25083;SDS011;13075;55.682;37.564;2023-02-26T17:32:28;16.88;;;8.45;;
25083;SDS011;13075;55.682;37.564;2023-02-26T17:34:55;13.55;;;8.10;;
25083;SDS011;13075;55.682;37.564;2023-02-26T17:37:22;16.50;;;8.40;;
25083;SDS011;13075;55.682;37.564;2023-02-26T17:39:54;14.40;;;8.02;;
25083;SDS011;13075;55.682;37.564;2023-02-26T17:42:21;12.70;;;7.53;;
25083;SDS011;13075;55.682;37.564;2023-02-26T17:44:47;11.50;;;6.75;;
25083;SDS011;13075;55.682;37.564;2023-02-26T17:47:17;12.70;;;8.85;;
25083;SDS011;13075;55.682;37.564;2023-02-26T17:49:45;15.27;;;7.53;;
25083;SDS011;13075;55.682;37.564;2023-02-26T17:52:12;12.63;;;7.00;;
25083;SDS011;13075;55.682;37.564;2023-02-26T17:54:38;13.20;;;7.82;;
25083;SDS011;13075;55.682;37.564;2023-02-26T17:57:04;11.65;;;7.47;;
25083;SDS011;13075;55.682;37.564;2023-02-26T17:59:30;10.60;;;7.30;;